Time;durP1;ratioP1;P1;durP2;ratioP2;P2;SDS_P1;SDS_P2;PMS_P1;PMS_P2;Temp;Humidity;BMP_temperature;BMP_pressure;BME280_temperature;BME280_humidity;BME280_pressure;Samples;Min_cycle;Max_cycle;Signal;HPM_P1;HPM_P2
2024/03/08 00:05:50;;;;;;;35.83;17.60;;;4.60;1.00;;;;;;20702780;28;20081;-40
2024/03/08 00:15:51;;;;;;;37.45;16.95;;;4.70;1.00;;;;;;20680207;28;20080;-40
2024/03/08 00:25:51;;;;;;;33.78;16.95;;;4.50;1.00;;;;;;20686719;28;20407;-40
2024/03/08 00:35:52;;;;;;;33.95;16.95;;;4.60;1.00;;;;;;20683201;28;20041;-40
2024/03/08 00:45:53;;;;;;;34.70;17.45;;;4.50;1.00;;;;;;20645920;28;20053;-40
2024/03/08 00:55:54;;;;;;;33.63;17.33;;;4.40;1.00;;;;;;20697899;28;20144;-40
2024/03/08 01:05:55;;;;;;;37.38;17.85;;;4.40;1.00;;;;;;20699224;28;20497;-40
2024/03/08 01:15:56;;;;;;;35.90;17.17;;;4.30;1.00;;;;;;20691711;28;20044;-40
2024/03/08 01:25:57;;;;;;;35.30;16.60;;;4.10;1.00;;;;;;20691471;28;20045;-40
2024/03/08 01:35:58;;;;;;;34.38;17.05;;;4.00;1.00;;;;;;20714085;28;20540;-42
2024/03/08 01:45:59;;;;;;;34.95;18.40;;;4.00;1.00;;;;;;20704549;28;20054;-40
2024/03/08 01:56:02;;;;;;;33.28;16.63;;;3.90;1.00;;;;;;20707717;28;20038;-41
2024/03/08 02:06:05;;;;;;;38.70;18.02;;;3.90;1.00;;;;;;20714321;28;20522;-40
2024/03/08 02:16:07;;;;;;;33.85;17.35;;;3.70;1.00;;;;;;20709072;28;20042;-40
2024/03/08 02:26:08;;;;;;;32.13;16.73;;;3.60;1.00;;;;;;20667323;28;20045;-41
2024/03/08 02:36:09;;;;;;;38.77;17.13;;;3.60;1.00;;;;;;20708001;28;20045;-40
2024/03/08 02:46:10;;;;;;;35.35;17.95;;;3.50;1.00;;;;;;20666322;28;20465;-40
2024/03/08 02:56:12;;;;;;;35.63;17.98;;;3.50;1.00;;;;;;20628570;28;20036;-40
2024/03/08 03:06:13;;;;;;;33.20;18.48;;;3.40;1.00;;;;;;20673589;28;20046;-40
2024/03/08 03:16:21;;;;;;;34.80;17.40;;;3.40;1.00;;;;;;20641831;28;20038;-40
2024/03/08 03:26:22;;;;;;;34.95;17.80;;;3.30;1.00;;;;;;20672431;28;20453;-40
2024/03/08 03:36:24;;;;;;;33.28;18.15;;;3.20;1.00;;;;;;20666453;28;20034;-40
2024/03/08 03:46:27;;;;;;;37.85;18.52;;;3.10;1.00;;;;;;20702272;28;20049;-40
2024/03/08 03:56:27;;;;;;;42.22;19.85;;;3.10;1.00;;;;;;20700425;28;20087;-40
2024/03/08 04:06:28;;;;;;;37.13;19.05;;;3.00;1.00;;;;;;20705577;28;20050;-40
2024/03/08 04:16:29;;;;;;;33.60;18.60;;;2.90;1.00;;;;;;20662454;28;20557;-40
2024/03/08 04:26:29;;;;;;;35.77;18.53;;;2.90;1.00;;;;;;20700153;28;20130;-40
2024/03/08 04:36:30;;;;;;;39.17;19.17;;;2.80;1.00;;;;;;20653490;28;20472;-39
2024/03/08 04:46:31;;;;;;;40.23;19.30;;;2.80;1.00;;;;;;20682448;28;20046;-41
2024/03/08 04:56:31;;;;;;;36.35;19.05;;;2.80;1.00;;;;;;20627157;28;20771;-41
2024/03/08 05:06:33;;;;;;;35.23;18.60;;;2.80;1.00;;;;;;20658458;28;20095;-41
2024/03/08 05:16:34;;;;;;;35.40;19.00;;;2.70;1.00;;;;;;20694745;28;20472;-40
2024/03/08 05:26:35;;;;;;;39.33;19.77;;;2.70;1.00;;;;;;20695805;28;20070;-40
2024/03/08 05:36:36;;;;;;;35.30;19.55;;;2.60;1.00;;;;;;20699492;28;20037;-40
2024/03/08 05:46:37;;;;;;;36.08;18.98;;;2.50;1.00;;;;;;20694343;28;20178;-40
2024/03/08 05:56:42;;;;;;;43.28;20.00;;;2.60;1.00;;;;;;20697806;28;20406;-40
2024/03/08 06:06:42;;;;;;;38.17;18.67;;;2.60;1.00;;;;;;20695796;28;20044;-40
2024/03/08 06:16:43;;;;;;;37.15;19.33;;;2.50;1.00;;;;;;20702572;28;20050;-40
2024/03/08 06:26:44;;;;;;;35.35;18.63;;;2.70;1.00;;;;;;20682741;28;20068;-40
2024/03/08 06:36:44;;;;;;;32.53;18.25;;;2.70;1.00;;;;;;20714849;28;20128;-40
2024/03/08 06:46:45;;;;;;;34.23;18.87;;;2.70;1.00;;;;;;20646762;28;20410;-40
2024/03/08 06:56:45;;;;;;;34.35;18.88;;;2.70;1.00;;;;;;20712561;28;20458;-40
2024/03/08 07:06:47;;;;;;;37.88;19.33;;;2.70;1.00;;;;;;20708834;28;20480;-40
2024/03/08 07:16:48;;;;;;;36.40;19.15;;;2.80;1.00;;;;;;20713211;28;20088;-41
2024/03/08 07:26:49;;;;;;;35.55;18.75;;;2.90;1.00;;;;;;20703701;28;20030;-41
2024/03/08 07:36:50;;;;;;;33.88;18.27;;;3.00;1.00;;;;;;20712212;28;20046;-41
2024/03/08 07:46:51;;;;;;;39.00;19.67;;;3.20;1.00;;;;;;20708410;28;20042;-40
2024/03/08 07:56:52;;;;;;;35.40;19.00;;;3.40;1.00;;;;;;20708705;28;20459;-41
2024/03/08 08:06:54;;;;;;;39.13;20.58;;;3.60;1.00;;;;;;20712454;28;20042;-40
2024/03/08 08:16:57;;;;;;;35.67;19.17;;;3.80;1.00;;;;;;20702298;28;20034;-41
2024/03/08 08:26:57;;;;;;;39.42;20.08;;;4.20;1.00;;;;;;20701644;28;20120;-41
2024/03/08 08:36:58;;;;;;;39.80;20.75;;;4.40;1.00;;;;;;20707315;28;20494;-41
2024/03/08 08:47:00;;;;;;;37.55;21.15;;;4.80;1.00;;;;;;20707087;28;20144;-41
2024/03/08 08:57:07;;;;;;;33.38;19.70;;;5.00;1.00;;;;;;20676476;28;20084;-40
2024/03/08 09:07:08;;;;;;;33.92;19.83;;;5.50;1.00;;;;;;20705217;28;20038;-41
2024/03/08 09:17:09;;;;;;;34.85;20.35;;;5.80;1.00;;;;;;20629253;28;20038;-41
2024/03/08 09:27:09;;;;;;;30.92;19.70;;;6.20;1.00;;;;;;20686199;28;20042;-41
2024/03/08 09:37:10;;;;;;;34.53;19.40;;;6.60;1.00;;;;;;20692377;28;20469;-41
2024/03/08 09:47:13;;;;;;;31.20;19.50;;;7.10;1.00;;;;;;20686459;28;20049;-42
2024/03/08 09:57:15;;;;;;;31.85;18.63;;;7.30;1.00;;;;;;20664807;28;20058;-42
2024/03/08 10:07:16;;;;;;;29.70;18.42;;;7.40;1.00;;;;;;20655681;28;20536;-41
2024/03/08 10:17:17;;;;;;;32.28;17.98;;;7.70;1.00;;;;;;20705675;28;20378;-42
2024/03/08 10:27:18;;;;;;;31.85;18.77;;;8.00;1.00;;;;;;20654535;28;20072;-42
2024/03/08 10:37:24;;;;;;;30.85;17.92;;;8.30;1.00;;;;;;20703516;28;20458;-42
2024/03/08 10:47:30;;;;;;;26.40;17.42;;;8.70;1.00;;;;;;20701921;28;20045;-42
2024/03/08 10:57:31;;;;;;;28.88;18.38;;;9.00;1.00;;;;;;20705349;28;20030;-41
2024/03/08 11:07:35;;;;;;;25.02;15.93;;;9.40;1.00;;;;;;20710783;28;20041;-41
2024/03/08 11:17:39;;;;;;;23.27;15.23;;;10.00;1.00;;;;;;20694290;28;20034;-41
2024/03/08 11:27:53;;;;;;;25.40;17.13;;;10.70;1.00;;;;;;20668209;28;20133;-39
2024/03/08 11:37:54;;;;;;;23.73;15.20;;;11.00;1.00;;;;;;20661676;28;20064;-39
2024/03/08 11:47:55;;;;;;;25.35;15.52;;;11.80;1.00;;;;;;20696270;28;20577;-41
2024/03/08 11:58:03;;;;;;;23.08;15.60;;;12.00;1.00;;;;;;20654666;28;20522;-41
2024/03/08 12:08:07;;;;;;;22.40;15.57;;;12.50;1.00;;;;;;20696807;28;20663;-42
2024/03/08 12:18:07;;;;;;;20.73;13.70;;;12.60;1.00;;;;;;20679355;28;20054;-41
2024/03/08 12:28:13;;;;;;;21.17;12.47;;;13.20;1.00;;;;;;20695811;28;20045;-41
2024/03/08 12:38:13;;;;;;;17.55;11.88;;;13.40;1.00;;;;;;20682576;28;21012;-41
2024/03/08 12:48:15;;;;;;;16.02;11.63;;;13.90;1.00;;;;;;20688547;28;20045;-41
2024/03/08 12:58:16;;;;;;;18.48;12.45;;;13.90;1.00;;;;;;20653910;28;20545;-41
2024/03/08 13:08:18;;;;;;;17.30;12.55;;;13.80;1.00;;;;;;20619501;28;20038;-41
2024/03/08 13:18:18;;;;;;;18.48;12.90;;;14.00;1.00;;;;;;20671095;28;20046;-41
2024/03/08 13:28:23;;;;;;;19.92;13.32;;;14.20;1.00;;;;;;20692239;28;20409;-41
2024/03/08 13:38:24;;;;;;;18.67;13.10;;;14.60;1.00;;;;;;20709988;28;20046;-41
2024/03/08 13:48:24;;;;;;;18.80;12.93;;;14.30;1.00;;;;;;20728001;28;20084;-41
2024/03/08 13:58:25;;;;;;;18.52;12.95;;;14.70;1.00;;;;;;20709691;28;20041;-41
2024/03/08 14:08:27;;;;;;;19.65;15.00;;;14.40;1.00;;;;;;20726247;28;20041;-41
2024/03/08 14:18:29;;;;;;;22.00;13.55;;;14.80;1.00;;;;;;20712068;28;20516;-42
2024/03/08 14:28:29;;;;;;;21.98;14.65;;;14.60;1.00;;;;;;20705589;28;20045;-41
2024/03/08 14:38:30;;;;;;;18.27;14.00;;;14.80;1.00;;;;;;20689052;28;20072;-41
2024/03/08 14:48:30;;;;;;;21.27;15.05;;;14.40;1.00;;;;;;20692460;28;20561;-41
2024/03/08 14:58:32;;;;;;;22.08;15.15;;;13.70;1.00;;;;;;20654344;28;20154;-42
2024/03/08 15:08:32;;;;;;;22.08;14.38;;;13.00;1.00;;;;;;20677981;28;20065;-41
2024/03/08 15:18:35;;;;;;;22.17;14.40;;;12.60;1.00;;;;;;20703535;28;20719;-42
2024/03/08 15:28:37;;;;;;;22.50;14.45;;;12.50;1.00;;;;;;20676827;28;20050;-41
2024/03/08 15:38:37;;;;;;;21.25;14.27;;;12.00;1.00;;;;;;20706150;28;20049;-41
2024/03/08 15:48:41;;;;;;;22.83;14.90;;;11.90;1.00;;;;;;20662398;28;20077;-41
2024/03/08 15:58:42;;;;;;;22.25;14.80;;;11.60;1.00;;;;;;20703947;28;20359;-41
2024/03/08 16:08:43;;;;;;;23.60;15.00;;;11.30;1.00;;;;;;20703913;28;20049;-41
2024/03/08 16:18:43;;;;;;;22.57;14.50;;;11.10;1.00;;;;;;20661987;28;20041;-41
2024/03/08 16:28:44;;;;;;;24.00;14.93;;;10.90;1.00;;;;;;20703260;28;20569;-41
2024/03/08 16:38:46;;;;;;;23.70;14.95;;;10.60;1.00;;;;;;20694303;28;20045;-41
2024/03/08 16:48:47;;;;;;;24.23;14.90;;;10.50;1.00;;;;;;20682944;28;20062;-41
2024/03/08 16:58:48;;;;;;;22.60;14.45;;;10.30;1.00;;;;;;20616406;28;20073;-39
2024/03/08 17:08:49;;;;;;;24.02;14.43;;;10.30;1.00;;;;;;20657209;28;20587;-39
2024/03/08 17:18:50;;;;;;;21.98;14.88;;;10.10;1.00;;;;;;20679492;28;20045;-39
2024/03/08 17:28:50;;;;;;;21.27;14.13;;;9.90;1.00;;;;;;20685634;28;20088;-39
2024/03/08 17:38:52;;;;;;;23.27;14.93;;;9.70;1.00;;;;;;20640214;28;20046;-39
2024/03/08 17:48:53;;;;;;;24.08;15.43;;;9.50;1.00;;;;;;20653925;28;20068;-39
2024/03/08 17:58:54;;;;;;;22.75;15.35;;;9.40;1.00;;;;;;20649634;28;20440;-40
2024/03/08 18:08:55;;;;;;;27.45;15.90;;;9.30;1.00;;;;;;20694367;28;20046;-39
2024/03/08 18:18:55;;;;;;;26.33;16.63;;;9.10;1.00;;;;;;20661295;28;20406;-39
2024/03/08 18:28:56;;;;;;;27.63;17.10;;;9.10;1.00;;;;;;20711580;28;20096;-39
2024/03/08 18:38:58;;;;;;;28.65;17.55;;;9.00;1.00;;;;;;20675469;28;20049;-39
2024/03/08 18:48:59;;;;;;;29.02;16.95;;;8.80;1.00;;;;;;20696975;28;20143;-39
2024/03/08 18:59:00;;;;;;;30.33;18.17;;;8.80;1.00;;;;;;20643725;28;20065;-40
2024/03/08 19:09:04;;;;;;;29.10;18.55;;;8.60;1.00;;;;;;20631553;28;20046;-39
2024/03/08 19:19:05;;;;;;;31.48;17.48;;;8.50;1.00;;;;;;20674356;28;20061;-39
2024/03/08 19:29:06;;;;;;;32.38;18.45;;;8.30;1.00;;;;;;20709166;28;20596;-39
2024/03/08 19:39:10;;;;;;;28.23;17.05;;;8.20;1.00;;;;;;20708008;28;20279;-41
2024/03/08 19:49:10;;;;;;;31.65;17.63;;;8.30;1.00;;;;;;20688467;28;20405;-39
2024/03/08 19:59:11;;;;;;;31.23;18.43;;;8.00;1.00;;;;;;20665580;28;20514;-42
2024/03/08 20:09:12;;;;;;;32.65;18.80;;;7.90;1.00;;;;;;20709529;28;20124;-40
2024/03/08 20:19:13;;;;;;;34.10;19.20;;;7.90;1.00;;;;;;20690262;28;20037;-39
2024/03/08 20:29:14;;;;;;;33.72;17.50;;;7.90;1.00;;;;;;20662969;28;20107;-40
2024/03/08 20:39:15;;;;;;;29.88;17.55;;;7.70;1.00;;;;;;20699848;28;20034;-40
2024/03/08 20:49:19;;;;;;;34.45;19.27;;;7.50;1.00;;;;;;20653658;28;20030;-41
2024/03/08 20:59:20;;;;;;;30.02;18.15;;;7.50;1.00;;;;;;20679844;28;20521;-41
2024/03/08 21:09:22;;;;;;;35.65;19.23;;;7.30;1.00;;;;;;20623863;28;20042;-41
2024/03/08 21:19:23;;;;;;;35.13;19.13;;;7.20;1.00;;;;;;20643039;28;20049;-40
2024/03/08 21:29:24;;;;;;;35.10;19.92;;;7.20;1.00;;;;;;20705063;28;20083;-39
2024/03/08 21:39:27;;;;;;;37.30;19.73;;;7.10;1.00;;;;;;20701108;28;20085;-39
2024/03/08 21:49:28;;;;;;;33.13;18.23;;;7.10;1.00;;;;;;20699630;28;20482;-39
2024/03/08 21:59:29;;;;;;;34.85;19.30;;;6.90;1.00;;;;;;20719157;28;20045;-39
2024/03/08 22:09:32;;;;;;;37.42;19.80;;;6.80;1.00;;;;;;20692171;28;20128;-39
2024/03/08 22:19:33;;;;;;;36.60;18.95;;;6.80;1.00;;;;;;20697518;28;20065;-40
2024/03/08 22:29:34;;;;;;;37.67;19.90;;;6.70;1.00;;;;;;20708701;28;20041;-40
2024/03/08 22:39:35;;;;;;;34.40;19.10;;;6.60;1.00;;;;;;20691830;28;20041;-40
2024/03/08 22:49:36;;;;;;;33.75;19.23;;;6.60;1.00;;;;;;20692037;28;20046;-40
2024/03/08 22:59:36;;;;;;;39.03;20.48;;;6.40;1.00;;;;;;20657892;28;20516;-40
2024/03/08 23:09:37;;;;;;;36.95;19.77;;;6.40;1.00;;;;;;20693411;28;20125;-40
2024/03/08 23:19:38;;;;;;;39.92;20.85;;;6.20;1.00;;;;;;20692743;28;20054;-40
2024/03/08 23:29:38;;;;;;;37.53;19.43;;;6.20;1.00;;;;;;20635407;28;20090;-40
2024/03/08 23:39:39;;;;;;;40.33;20.88;;;6.10;1.00;;;;;;20670190;28;20054;-40
2024/03/08 23:49:40;;;;;;;36.95;19.30;;;6.10;1.00;;;;;;20628185;28;20561;-40
2024/03/08 23:59:41;;;;;;;37.17;19.45;;;6.00;1.00;;;;;;20690073;28;20433;-40
